createdAt,value
2022-11-29T00:01:31.537Z,5.43
2022-11-29T00:04:36.458Z,5.70
2022-11-29T00:07:42.583Z,6.50
2022-11-29T00:10:47.495Z,7.03
2022-11-29T00:13:52.169Z,6.43
2022-11-29T00:17:02.033Z,6.70
2022-11-29T00:20:10.308Z,6.73
2022-11-29T00:23:16.516Z,6.70
2022-11-29T00:26:21.349Z,6.63
2022-11-29T00:29:26.122Z,8.57
2022-11-29T00:32:30.766Z,7.00
2022-11-29T00:35:35.481Z,6.57
2022-11-29T00:38:41.892Z,7.77
2022-11-29T00:41:47.165Z,6.77
2022-11-29T00:44:51.858Z,7.50
2022-11-29T00:47:57.036Z,7.00
2022-11-29T00:51:01.778Z,7.53
2022-11-29T00:54:07.984Z,6.93
2022-11-29T00:57:14.411Z,7.97
2022-11-29T01:00:20.028Z,8.13
2022-11-29T01:03:25.141Z,6.90
2022-11-29T01:06:29.806Z,7.40
2022-11-29T01:09:36.007Z,6.87
2022-11-29T01:12:41.269Z,8.23
2022-11-29T01:15:45.969Z,8.50
2022-11-29T01:18:50.613Z,6.90
2022-11-29T01:21:55.305Z,7.67
2022-11-29T01:25:01.512Z,7.87
2022-11-29T01:28:06.305Z,7.93
2022-11-29T01:31:13.537Z,7.50
2022-11-29T01:34:18.564Z,7.83
2022-11-29T01:37:23.375Z,8.07
2022-11-29T01:40:29.493Z,7.47
2022-11-29T01:43:34.959Z,6.80
2022-11-29T01:46:41.894Z,7.30
2022-11-29T01:49:49.033Z,7.70
2022-11-29T01:52:54.098Z,7.57
2022-11-29T01:56:04.464Z,6.73
2022-11-29T01:59:13.054Z,7.53
2022-11-29T02:02:23.541Z,8.03
2022-11-29T02:05:28.679Z,6.80
2022-11-29T02:08:38.348Z,6.53
2022-11-29T02:12:09.402Z,6.60
2022-11-29T02:15:27.160Z,6.00
2022-11-29T02:18:45.458Z,5.47
2022-11-29T02:21:53.108Z,6.47
2022-11-29T02:25:19.269Z,4.90
2022-11-29T02:28:57.219Z,5.47
2022-11-29T02:32:47.798Z,5.13
2022-11-29T02:36:31.886Z,5.83
2022-11-29T02:40:00.029Z,5.63
2022-11-29T02:43:31.191Z,5.50
2022-11-29T02:46:56.413Z,5.97
2022-11-29T02:50:26.360Z,5.93
2022-11-29T02:53:36.825Z,6.13
2022-11-29T02:56:47.485Z,6.53
2022-11-29T02:59:58.671Z,6.03
2022-11-29T03:03:08.140Z,10.30
2022-11-29T03:06:28.500Z,6.30
2022-11-29T03:09:40.492Z,6.17
2022-11-29T03:12:48.717Z,6.33
2022-11-29T03:16:00.705Z,5.90
2022-11-29T03:19:46.642Z,6.20
2022-11-29T03:23:10.198Z,6.37
2022-11-29T03:26:18.795Z,6.60
2022-11-29T03:29:28.384Z,6.27
2022-11-29T03:32:41.042Z,6.80
2022-11-29T03:35:52.169Z,5.80
2022-11-29T03:39:04.952Z,7.13
2022-11-29T03:42:17.511Z,5.97
2022-11-29T03:45:28.947Z,7.93
2022-11-29T03:48:36.632Z,6.73
2022-11-29T03:51:58.289Z,6.57
2022-11-29T03:55:21.249Z,7.43
2022-11-29T03:58:46.219Z,5.47
2022-11-29T04:02:27.304Z,6.40
2022-11-29T04:05:58.783Z,6.20
2022-11-29T04:09:36.561Z,6.83
2022-11-29T04:13:38.365Z,6.43
2022-11-29T04:17:26.301Z,7.60
2022-11-29T04:21:11.866Z,6.10
2022-11-29T04:24:57.042Z,6.93
2022-11-29T04:28:28.136Z,7.47
2022-11-29T04:31:45.079Z,6.30
2022-11-29T04:35:18.139Z,6.47
2022-11-29T04:38:48.412Z,6.37
2022-11-29T04:42:42.248Z,7.53
2022-11-29T04:46:15.867Z,6.63
2022-11-29T04:49:46.079Z,7.63
2022-11-29T04:53:32.389Z,7.40
2022-11-29T04:56:44.321Z,7.07
2022-11-29T04:59:53.435Z,8.10
2022-11-29T05:03:00.952Z,7.30
2022-11-29T05:06:20.598Z,6.50
2022-11-29T05:09:36.068Z,6.67
2022-11-29T05:12:47.243Z,6.43
2022-11-29T05:16:15.907Z,7.00
2022-11-29T05:19:54.838Z,6.10
2022-11-29T05:23:18.639Z,6.73
2022-11-29T05:26:30.357Z,6.10
2022-11-29T05:29:41.790Z,6.80
2022-11-29T05:32:57.769Z,7.00
2022-11-29T05:36:11.661Z,6.50
2022-11-29T05:39:32.381Z,7.37
2022-11-29T05:42:57.395Z,6.37
2022-11-29T05:46:08.630Z,6.07
2022-11-29T05:49:25.398Z,6.03
2022-11-29T05:52:43.284Z,6.30
2022-11-29T05:55:56.629Z,6.40
2022-11-29T05:59:08.115Z,6.73
2022-11-29T06:02:34.240Z,6.50
2022-11-29T06:05:47.029Z,7.37
2022-11-29T06:08:57.156Z,6.30
2022-11-29T06:12:05.391Z,6.40
2022-11-29T06:15:51.964Z,6.60
2022-11-29T06:19:42.370Z,6.50
2022-11-29T06:23:03.048Z,6.37
2022-11-29T06:26:22.746Z,6.10
2022-11-29T06:29:34.680Z,5.97
2022-11-29T06:32:47.729Z,7.50
2022-11-29T06:36:09.229Z,6.23
2022-11-29T06:39:15.191Z,6.00
2022-11-29T06:42:19.868Z,6.23
2022-11-29T06:45:25.420Z,6.00
2022-11-29T06:48:38.520Z,5.67
2022-11-29T06:51:56.226Z,5.87
2022-11-29T06:55:18.278Z,7.20
2022-11-29T06:58:41.199Z,6.17
2022-11-29T07:01:52.715Z,8.70
2022-11-29T07:05:15.430Z,6.40
2022-11-29T07:08:22.989Z,6.13
2022-11-29T07:11:29.186Z,5.97
2022-11-29T07:14:34.807Z,7.60
2022-11-29T07:17:47.481Z,6.83
2022-11-29T07:21:05.244Z,6.23
2022-11-29T07:24:21.118Z,6.00
2022-11-29T07:27:30.991Z,6.30
2022-11-29T07:30:43.360Z,5.53
2022-11-29T07:33:58.759Z,6.23
2022-11-29T07:37:10.952Z,5.97
2022-11-29T07:40:17.181Z,6.67
2022-11-29T07:43:36.889Z,5.80
2022-11-29T07:46:41.714Z,8.00
2022-11-29T07:49:46.396Z,4.93
2022-11-29T07:52:52.879Z,6.33
2022-11-29T07:55:58.058Z,5.13
2022-11-29T07:59:02.905Z,5.37
2022-11-29T08:02:11.619Z,4.60
2022-11-29T08:05:16.920Z,5.97
2022-11-29T08:08:23.099Z,4.47
2022-11-29T08:11:28.482Z,4.43
2022-11-29T08:14:33.860Z,4.30
2022-11-29T08:17:38.908Z,4.17
2022-11-29T08:20:43.719Z,3.93
2022-11-29T08:23:50.812Z,5.43
2022-11-29T08:26:55.473Z,5.43
2022-11-29T08:30:00.760Z,4.33
2022-11-29T08:33:05.801Z,4.43
2022-11-29T08:36:15.392Z,4.13
2022-11-29T08:39:21.569Z,4.10
2022-11-29T08:42:26.390Z,3.60
2022-11-29T08:45:30.981Z,4.40
2022-11-29T08:48:36.973Z,3.63
2022-11-29T08:51:41.988Z,4.30
2022-11-29T08:54:48.569Z,3.90
2022-11-29T08:57:54.117Z,3.73
2022-11-29T09:00:59.324Z,4.13
2022-11-29T09:04:04.204Z,4.03
2022-11-29T09:07:09.211Z,4.40
2022-11-29T09:10:15.371Z,5.23
2022-11-29T09:13:20.105Z,4.50
2022-11-29T09:16:28.075Z,4.33
2022-11-29T09:19:32.906Z,3.83
2022-11-29T09:22:37.536Z,3.87
2022-11-29T09:25:49.875Z,3.90
2022-11-29T09:28:54.916Z,4.60
2022-11-29T09:31:59.827Z,3.57
2022-11-29T09:35:04.588Z,3.47
2022-11-29T09:38:09.459Z,3.93
2022-11-29T09:41:48.551Z,4.07
2022-11-29T09:45:04.110Z,4.73
2022-11-29T09:48:26.977Z,6.40
2022-11-29T09:51:39.845Z,4.07
2022-11-29T09:54:55.602Z,3.50
2022-11-29T09:58:03.833Z,4.07
2022-11-29T10:01:14.678Z,3.40
2022-11-29T10:04:22.979Z,4.20
2022-11-29T10:07:32.655Z,4.10
2022-11-29T10:10:43.224Z,4.37
2022-11-29T10:13:53.637Z,3.53
2022-11-29T10:17:04.377Z,6.73
2022-11-29T10:20:15.940Z,3.70
2022-11-29T10:23:25.509Z,3.63
2022-11-29T10:26:35.001Z,4.17
2022-11-29T10:29:41.588Z,3.33
2022-11-29T10:32:48.736Z,3.40
2022-11-29T10:35:57.951Z,3.37
2022-11-29T10:39:11.391Z,3.30
2022-11-29T10:42:39.341Z,2.97
2022-11-29T10:45:50.804Z,3.00
2022-11-29T10:48:56.029Z,2.77
2022-11-29T10:52:01.309Z,3.13
2022-11-29T10:55:08.073Z,2.90
2022-11-29T10:58:24.798Z,3.43
2022-11-29T11:01:38.967Z,3.00
2022-11-29T11:04:48.065Z,2.83
2022-11-29T11:07:57.967Z,2.80
2022-11-29T11:11:04.844Z,3.10
2022-11-29T11:14:24.632Z,3.20
2022-11-29T11:17:32.973Z,2.80
2022-11-29T11:20:40.877Z,2.87
2022-11-29T11:23:55.812Z,2.70
2022-11-29T11:27:01.599Z,2.50
2022-11-29T11:30:09.131Z,2.37
2022-11-29T11:33:23.053Z,2.40
2022-11-29T11:36:28.891Z,2.47
2022-11-29T11:39:33.613Z,2.77
2022-11-29T11:42:41.034Z,2.87
2022-11-29T11:45:53.834Z,2.63
2022-11-29T11:49:00.549Z,2.90
2022-11-29T11:52:07.121Z,3.03
2022-11-29T11:55:33.293Z,3.10
2022-11-29T11:58:40.345Z,2.67
2022-11-29T12:01:45.012Z,3.03
2022-11-29T12:04:51.099Z,2.93
2022-11-29T12:08:09.027Z,3.10
2022-11-29T12:11:17.257Z,2.60
2022-11-29T12:14:30.830Z,3.20
2022-11-29T12:17:38.459Z,3.20
2022-11-29T12:20:50.251Z,2.87
2022-11-29T12:23:59.386Z,2.70
2022-11-29T12:27:06.943Z,3.27
2022-11-29T12:30:15.325Z,2.90
2022-11-29T12:33:31.770Z,3.43
2022-11-29T12:36:43.200Z,3.33
2022-11-29T12:39:58.679Z,3.17
2022-11-29T12:43:11.032Z,3.17
2022-11-29T12:46:22.249Z,3.17
2022-11-29T12:49:31.708Z,2.93
2022-11-29T12:52:46.059Z,3.80
2022-11-29T12:55:58.260Z,3.27
2022-11-29T12:59:19.635Z,3.03
2022-11-29T13:02:36.218Z,3.20
2022-11-29T13:05:52.971Z,2.93
2022-11-29T13:10:02.872Z,3.63
2022-11-29T13:13:18.985Z,2.50
2022-11-29T13:16:36.533Z,2.53
2022-11-29T13:19:46.310Z,7.07
2022-11-29T13:22:57.573Z,2.77
2022-11-29T13:26:08.060Z,2.40
2022-11-29T13:29:17.036Z,2.33
2022-11-29T13:32:34.940Z,2.50
2022-11-29T13:35:45.269Z,2.70
2022-11-29T13:39:01.090Z,2.83
2022-11-29T13:42:14.141Z,3.10
2022-11-29T13:45:25.313Z,2.97
2022-11-29T13:48:37.971Z,3.00
2022-11-29T13:51:42.630Z,3.27
2022-11-29T13:54:47.597Z,2.93
2022-11-29T14:01:21.600Z,2.67
2022-11-29T14:04:31.608Z,3.00
2022-11-29T14:07:36.488Z,3.63
2022-11-29T14:10:41.474Z,3.13
2022-11-29T14:13:53.237Z,3.03
2022-11-29T14:17:01.840Z,3.40
2022-11-29T14:20:59.014Z,3.53
2022-11-29T14:24:40.572Z,3.47
2022-11-29T14:28:05.913Z,3.30
2022-11-29T14:31:13.035Z,3.43
2022-11-29T14:34:29.298Z,4.97
2022-11-29T14:37:52.252Z,3.70
2022-11-29T14:41:02.312Z,6.20
2022-11-29T14:44:17.142Z,3.13
2022-11-29T14:47:29.971Z,3.97
2022-11-29T14:50:37.029Z,3.53
2022-11-29T14:53:43.956Z,3.80
2022-11-29T14:56:48.886Z,4.10
2022-11-29T14:59:55.040Z,3.37
2022-11-29T15:03:09.932Z,3.30
2022-11-29T15:06:19.353Z,3.33
2022-11-29T15:09:24.584Z,5.63
2022-11-29T15:12:35.435Z,3.43
2022-11-29T15:15:55.052Z,3.30
2022-11-29T15:19:46.688Z,2.93
2022-11-29T15:22:54.974Z,2.90
2022-11-29T15:26:01.967Z,3.27
2022-11-29T15:29:18.011Z,3.30
2022-11-29T15:32:26.750Z,3.13
2022-11-29T15:35:34.150Z,3.87
2022-11-29T15:38:51.537Z,3.30
2022-11-29T15:42:02.905Z,4.33
2022-11-29T15:45:28.056Z,3.90
2022-11-29T15:48:33.794Z,3.67
2022-11-29T15:51:40.166Z,3.40
2022-11-29T15:54:46.738Z,3.10
2022-11-29T15:57:53.393Z,3.43
2022-11-29T16:00:59.167Z,3.23
2022-11-29T16:04:03.932Z,3.90
2022-11-29T16:07:10.370Z,3.53
2022-11-29T16:10:18.170Z,3.43
2022-11-29T16:13:35.690Z,3.57
2022-11-29T16:16:41.366Z,3.73
2022-11-29T16:19:47.024Z,3.63
2022-11-29T16:23:11.335Z,4.00
2022-11-29T16:26:19.033Z,3.23
2022-11-29T16:29:28.392Z,3.60
2022-11-29T16:32:35.151Z,4.00
2022-11-29T16:35:40.078Z,4.83
2022-11-29T16:38:49.087Z,3.47
2022-11-29T16:42:08.807Z,3.70
2022-11-29T16:45:35.209Z,3.97
2022-11-29T16:48:40.444Z,3.93
2022-11-29T16:51:49.097Z,4.07
2022-11-29T16:54:55.163Z,3.60
2022-11-29T16:57:59.781Z,3.23
2022-11-29T17:01:17.984Z,4.00
2022-11-29T17:04:23.263Z,3.83
2022-11-29T17:07:32.648Z,4.53
2022-11-29T17:10:38.839Z,3.87
2022-11-29T17:13:43.622Z,3.47
2022-11-29T17:16:49.479Z,4.50
2022-11-29T17:19:54.676Z,13.30
2022-11-29T17:22:59.533Z,12.37
2022-11-29T17:26:05.755Z,18.10
2022-11-29T17:29:12.149Z,8.67
2022-11-29T17:32:16.815Z,5.97
2022-11-29T17:35:21.482Z,4.43
2022-11-29T17:38:26.698Z,4.20
2022-11-29T17:41:33.757Z,3.83
2022-11-29T17:44:38.467Z,4.20
2022-11-29T17:47:43.325Z,3.57
2022-11-29T17:50:48.025Z,3.20
2022-11-29T17:53:54.242Z,3.40
2022-11-29T17:57:00.997Z,3.40
2022-11-29T18:00:08.197Z,3.03
2022-11-29T18:03:16.028Z,2.83
2022-11-29T18:06:22.637Z,3.07
2022-11-29T18:09:27.336Z,2.83
2022-11-29T18:12:33.383Z,3.40
2022-11-29T18:15:38.377Z,4.47
2022-11-29T18:18:44.048Z,3.00
2022-11-29T18:21:49.535Z,3.13
2022-11-29T18:25:09.836Z,3.10
2022-11-29T18:28:20.223Z,3.73
2022-11-29T18:31:28.275Z,2.80
2022-11-29T18:34:33.002Z,3.00
2022-11-29T18:38:12.774Z,2.87
2022-11-29T18:41:08.627Z,2.50
2022-11-29T18:44:16.695Z,2.63
2022-11-29T18:47:21.387Z,5.07
2022-11-29T18:50:26.168Z,2.90
2022-11-29T18:53:30.925Z,3.20
2022-11-29T18:56:38.348Z,3.83
2022-11-29T18:59:44.422Z,3.13
2022-11-29T19:02:49.186Z,2.97
2022-11-29T19:05:54.447Z,3.10
2022-11-29T19:08:59.569Z,3.13
2022-11-29T19:12:04.409Z,2.90
2022-11-29T19:15:13.031Z,3.53
2022-11-29T19:18:20.199Z,3.33
2022-11-29T19:21:27.360Z,7.80
2022-11-29T19:24:32.077Z,3.47
2022-11-29T19:27:36.725Z,3.90
2022-11-29T19:30:42.917Z,4.00
2022-11-29T19:33:48.386Z,4.23
2022-11-29T19:36:53.040Z,5.57
2022-11-29T19:39:57.679Z,4.70
2022-11-29T19:43:02.440Z,4.63
2022-11-29T19:46:13.863Z,5.73
2022-11-29T19:49:18.566Z,8.10
2022-11-29T19:52:23.373Z,7.10
2022-11-29T19:55:28.161Z,5.07
2022-11-29T19:58:33.002Z,5.90
2022-11-29T20:01:42.326Z,5.93
2022-11-29T20:04:49.672Z,5.33
2022-11-29T20:07:54.442Z,5.67
2022-11-29T20:11:06.995Z,6.90
2022-11-29T20:14:14.562Z,6.67
2022-11-29T20:17:20.726Z,6.47
2022-11-29T20:20:25.487Z,6.50
2022-11-29T20:23:30.745Z,8.83
2022-11-29T20:26:39.311Z,7.87
2022-11-29T20:29:44.192Z,8.80
2022-11-29T20:32:50.942Z,8.40
2022-11-29T20:36:03.952Z,9.30
2022-11-29T20:39:20.035Z,9.33
2022-11-29T20:42:54.588Z,9.33
2022-11-29T20:45:59.825Z,7.77
2022-11-29T20:49:07.008Z,6.83
2022-11-29T20:52:24.149Z,7.97
2022-11-29T20:55:29.032Z,9.27
2022-11-29T20:58:34.725Z,8.63
2022-11-29T21:01:39.476Z,9.47
2022-11-29T21:04:45.798Z,7.00
2022-11-29T21:07:50.720Z,7.17
2022-11-29T21:10:55.793Z,7.23
2022-11-29T21:14:03.860Z,9.67
2022-11-29T21:17:09.697Z,9.57
2022-11-29T21:20:22.845Z,7.80
2022-11-29T21:23:38.044Z,8.60
2022-11-29T21:26:46.178Z,6.60
2022-11-29T21:29:51.973Z,6.83
2022-11-29T21:32:57.517Z,6.80
2022-11-29T21:36:06.096Z,9.57
2022-11-29T21:39:14.152Z,10.47
2022-11-29T21:42:19.138Z,13.57
2022-11-29T21:45:23.845Z,13.43
2022-11-29T21:48:37.979Z,14.70
2022-11-29T21:51:44.089Z,10.50
2022-11-29T21:54:49.071Z,9.47
2022-11-29T21:57:54.079Z,10.37
2022-11-29T22:01:06.180Z,6.00
2022-11-29T22:04:11.400Z,6.87
2022-11-29T22:07:17.482Z,9.33
2022-11-29T22:10:22.204Z,8.87
2022-11-29T22:13:26.880Z,6.63
2022-11-29T22:16:31.819Z,10.80
2022-11-29T22:19:37.383Z,19.10
2022-11-29T22:22:43.398Z,19.63
2022-11-29T22:25:48.096Z,11.93
2022-11-29T22:28:52.894Z,14.77
2022-11-29T22:31:59.304Z,8.77
2022-11-29T22:35:04.024Z,8.80
2022-11-29T22:38:10.373Z,9.10
2022-11-29T22:41:16.386Z,8.50
2022-11-29T22:44:21.035Z,5.57
2022-11-29T22:47:25.719Z,5.77
2022-11-29T22:50:30.709Z,7.23
2022-11-29T22:53:37.385Z,5.03
2022-11-29T22:56:44.596Z,5.00
2022-11-29T22:59:49.294Z,4.73
2022-11-29T23:02:58.169Z,8.57
2022-11-29T23:06:07.833Z,4.40
2022-11-29T23:09:17.118Z,6.47
2022-11-29T23:12:22.001Z,5.47
2022-11-29T23:15:26.797Z,4.27
2022-11-29T23:18:31.590Z,5.40
2022-11-29T23:21:38.914Z,4.13
2022-11-29T23:24:46.889Z,4.73
2022-11-29T23:27:54.008Z,3.93
2022-11-29T23:31:00.117Z,3.57
2022-11-29T23:34:05.541Z,3.63
2022-11-29T23:37:11.358Z,4.00
2022-11-29T23:40:17.706Z,4.33
2022-11-29T23:43:22.809Z,5.20
2022-11-29T23:46:27.996Z,4.53
2022-11-29T23:49:35.311Z,6.53
2022-11-29T23:52:40.164Z,5.00
2022-11-29T23:55:47.851Z,3.60
2022-11-29T23:58:52.529Z,4.40
